Latest Weather Observations for Swan Hill

IDV60801

Issued at 10:02 pm EST Sunday 25 September 2016 (issued every 30 minutes, with the page automatically refreshed every 10 minutes)

About weather observations | Map of weather stations | Latest weather observations for VIC | Other Formats
Station Details ID: 077094 Name: SWAN HILL AERODROME Lat: -35.38 Lon: 143.54 Height: 71.0 m
Data from the previous 72 hours. | See also: Recent months at Swan Hill
Date/Time
EST
Temp
°C
App
Temp
°C
Dew
Point
°C
Rel
Hum
%
Delta-T
°C
Wind Press
QNH
hPa
Press
MSL
hPa
Rain since
9am
mm
Dir  Spd
km/h
Gust
km/h
Spd
kts
Gust
kts
25/10:00pm 10.6 8.1 8.0 84 1.3 NNW 11 15 6 8 1015.2 1015.2 0.2
25/09:30pm 11.3 9.7 7.8 79 1.7 SSW 6 7 3 4 1015.0 1015.0 0.2
25/09:00pm 11.8 11.0 6.3 69 2.6 CALM 0 0 0 0 1014.8 1014.8 0.2
25/08:30pm 12.1 10.0 5.7 65 3.0 SSW 6 7 3 4 1014.5 1014.5 0.2
25/08:00pm 12.2 10.1 5.6 64 3.1 SSW 6 9 3 5 1014.5 1014.5 0.2
25/07:30pm 12.5 11.1 5.4 62 3.3 SSW 2 7 1 4 1014.3 1014.3 0.2
25/07:00pm 12.6 10.3 5.8 63 3.2 SW 7 9 4 5 1013.9 1013.9 0.2
25/06:30pm 12.8 10.2 6.2 64 3.1 SW 9 11 5 6 1013.6 1013.6 0.2
25/06:00pm 13.1 10.6 6.5 64 3.2 SW 9 13 5 7 1013.4 1013.4 0.2
25/05:30pm 13.9 10.2 4.5 53 4.3 SSW 13 17 7 9 1013.0 1013.0 0.2
25/05:00pm 13.3 9.8 5.5 59 3.7 WSW 13 19 7 10 1012.9 1012.9 0.2
25/04:30pm 14.3 9.8 4.3 51 4.6 SW 17 24 9 13 1012.7 1012.7 0.2
25/04:00pm 14.6 9.6 3.7 48 5.0 SW 19 26 10 14 1012.4 1012.4 0.2
25/03:30pm 14.7 9.6 4.1 49 4.9 SW 20 28 11 15 1012.5 1012.5 0.2
25/03:00pm 16.7 11.0 4.7 45 5.7 WSW 24 33 13 18 1012.3 1012.3 0.2
25/02:30pm 16.0 10.1 4.1 45 5.5 WSW 24 35 13 19 1012.7 1012.7 0.2
25/02:00pm 15.3 9.8 3.8 46 5.3 SW 22 32 12 17 1013.0 1013.0 0.2
25/01:30pm 15.7 10.0 4.7 48 5.2 SW 24 33 13 18 1013.1 1013.1 0.2
25/01:00pm 15.4 9.6 4.2 47 5.2 SW 24 37 13 20 1013.2 1013.2 0.0
25/12:30pm 15.1 9.0 5.0 51 4.8 SW 26 35 14 19 1013.6 1013.6 0.0
25/12:00pm 14.1 8.5 5.2 55 4.2 SW 24 39 13 21 1013.9 1013.9 0.0
25/11:30am 14.5 8.1 5.3 54 4.3 SW 28 37 15 20 1013.9 1013.9 0.0
25/11:00am 13.2 6.9 3.6 52 4.3 SW 26 39 14 21 1014.0 1014.0 0.0
25/10:30am 12.7 6.0 3.9 55 4.0 SW 28 37 15 20 1014.0 1014.0 0.0
25/10:00am 12.3 6.8 4.0 57 3.7 SW 22 35 12 19 1013.8 1013.8 0.0
25/09:30am 11.8 5.8 5.2 64 3.0 SW 26 35 14 19 1013.8 1013.8 0.0
25/09:00am 11.1 6.7 7.2 77 1.9 SW 20 33 11 18 1013.7 1013.7 2.4
25/08:30am 9.6 5.0 6.7 82 1.4 WSW 20 30 11 16 1013.5 1013.5 2.4
25/08:00am 8.9 4.6 6.9 87 0.9 WSW 19 24 10 13 1013.1 1013.1 2.4
25/07:30am 7.4 3.3 6.2 92 0.5 WSW 17 22 9 12 1012.6 1012.6 2.4
25/07:00am 6.4 2.9 5.4 93 0.4 WSW 13 17 7 9 1011.9 1011.9 2.4
25/06:30am 5.6 1.9 4.6 93 0.4 WSW 13 15 7 8 1011.7 1011.7 2.4
25/06:00am 5.7 2.0 4.5 92 0.5 WSW 13 15 7 8 1011.0 1011.0 2.4
25/05:30am 6.7 3.2 5.5 92 0.5 SW 13 17 7 9 1010.7 1010.7 2.4
25/05:00am 7.2 3.8 6.0 92 0.5 SW 13 19 7 10 1010.3 1010.3 2.4
25/04:30am 7.6 4.3 6.4 92 0.5 SW 13 19 7 10 1009.9 1009.9 2.4
25/04:00am 8.2 3.9 6.8 91 0.7 SW 19 26 10 14 1009.4 1009.4 2.4
25/03:30am 8.7 4.3 7.3 91 0.7 SW 20 26 11 14 1009.0 1009.0 2.4
25/03:00am 9.3 3.9 8.1 92 0.6 SW 26 33 14 18 1008.9 1008.9 2.4
25/02:30am 9.8 5.7 8.6 92 0.6 SW 20 30 11 16 1008.7 1008.7 2.4
25/02:00am 10.2 6.1 8.6 90 0.8 SW 20 26 11 14 1008.7 1008.7 2.4
25/01:30am 11.0 7.1 9.3 89 0.9 SW 20 28 11 15 1008.8 1008.8 2.4
25/01:00am 11.5 7.4 10.2 92 0.7 SW 22 33 12 18 1008.6 1008.6 2.4
25/12:30am 11.8 7.9 10.7 93 0.6 WSW 22 32 12 17 1008.2 1008.2 2.0
25/12:00am 11.8 8.8 10.7 93 0.6 WNW 17 22 9 12 1008.0 1008.0 1.8
 
Date/Time
EST
Temp
°C
App
Temp
°C
Dew
Point
°C
Rel
Hum
%
Delta-T
°C
Wind Press
QNH
hPa
Press
MSL
hPa
Rain since
9am
mm
Dir  Spd
km/h
Gust
km/h
Spd
kts
Gust
kts
24/11:30pm 11.9 8.6 10.8 93 0.6 NW 19 28 10 15 1008.0 1008.0 1.8
24/11:29pm 11.8 8.4 10.7 93 0.6 NW 19 28 10 15 1008.0 1008.0 1.8
24/11:12pm 11.9 9.3 10.8 93 0.6 WNW 15 20 8 11 1008.2 1008.2 1.6
24/11:07pm 11.9 9.7 10.8 93 0.6 NW 13 17 7 9 1008.1 1008.1 1.2
24/11:00pm 11.9 9.7 10.8 93 0.6 WNW 13 17 7 9 1008.1 1008.1 1.2
24/10:30pm 11.9 10.0 10.6 92 0.7 WNW 11 13 6 7 1008.0 1008.0 1.0
24/10:00pm 12.1 10.2 10.5 90 0.8 WNW 11 13 6 7 1008.0 1008.0 0.6
24/09:30pm 12.7 10.8 10.6 87 1.1 WNW 11 15 6 8 1008.1 1008.1 0.4
24/09:00pm 12.9 10.6 10.4 85 1.3 NW 13 20 7 11 1007.9 1007.9 0.4
24/08:30pm 13.1 11.6 10.5 84 1.4 N 9 11 5 6 1007.8 1007.8 0.2
24/08:00pm 13.4 11.4 10.0 80 1.8 N 11 13 6 7 1007.5 1007.5 0.2
24/07:30pm 13.6 12.4 10.2 80 1.8 N 7 9 4 5 1007.3 1007.3 0.2
24/07:00pm 13.7 12.6 10.5 81 1.7 N 7 9 4 5 1007.1 1007.1 0.2
24/06:30pm 14.2 13.0 10.2 77 2.1 N 7 7 4 4 1006.9 1006.9 0.2
24/06:00pm 14.5 13.2 10.1 75 2.3 N 7 9 4 5 1006.8 1006.8 0.2
24/05:30pm 15.1 13.4 9.7 70 2.8 N 9 11 5 6 1006.8 1006.8 0.2
24/05:00pm 15.2 14.1 10.6 74 2.4 NNE 7 9 4 5 1006.6 1006.6 0.2
24/04:30pm 15.3 13.7 10.1 71 2.7 N 9 13 5 7 1006.7 1006.7 0.2
24/04:00pm 15.1 12.7 10.1 72 2.6 N 13 17 7 9 1007.0 1007.0 0.2
24/03:30pm 15.5 13.2 10.3 71 2.7 N 13 17 7 9 1007.1 1007.1 0.2
24/03:00pm 15.8 13.3 9.7 67 3.2 N 13 19 7 10 1006.9 1006.9 0.0
24/02:30pm 16.9 13.2 8.1 56 4.5 N 17 20 9 11 1006.8 1006.8 0.0
24/02:00pm 17.2 14.0 8.6 57 4.4 N 15 20 8 11 1007.1 1007.1 0.0
24/01:30pm 17.3 13.7 8.4 56 4.6 NNW 17 20 9 11 1007.5 1007.5 0.0
24/01:00pm 17.4 11.7 6.9 50 5.3 NNW 26 35 14 19 1008.0 1008.0 0.0
24/12:30pm 17.6 12.5 7.6 52 5.1 N 24 32 13 17 1008.4 1008.4 0.0
24/12:00pm 18.1 13.3 7.5 50 5.4 N 22 32 12 17 1008.4 1008.4 0.0
24/11:30am 18.7 13.0 6.9 46 5.9 N 26 33 14 18 1008.3 1008.3 0.0
24/11:00am 17.7 13.0 7.7 52 5.1 N 22 28 12 15 1008.5 1008.5 0.0
24/10:30am 17.6 13.5 8.5 55 4.7 N 20 28 11 15 1009.0 1009.0 0.0
24/10:00am 17.1 12.6 8.5 57 4.4 NNE 22 30 12 16 1009.3 1009.3 0.0
24/09:30am 15.8 11.4 8.8 63 3.6 N 22 32 12 17 1009.7 1009.7 0.0
24/09:00am 14.3 10.2 8.7 69 2.8 N 20 30 11 16 1009.9 1009.9 0.0
24/08:30am 12.7 9.1 8.4 75 2.1 NNE 17 20 9 11 1010.0 1010.0 0.0
24/08:00am 10.9 8.0 8.1 83 1.4 NE 13 17 7 9 1009.8 1009.8 0.0
24/07:30am 8.9 4.9 6.7 86 1.0 NE 17 20 9 11 1009.8 1009.8 0.0
24/07:00am 6.9 3.0 5.5 91 0.6 NE 15 17 8 9 1010.0 1010.0 0.0
24/06:30am 6.3 3.1 5.1 92 0.5 NE 11 13 6 7 1010.2 1010.2 0.0
24/06:00am 5.9 3.0 4.5 91 0.6 NE 9 11 5 6 1010.0 1010.0 0.0
24/05:30am 5.8 2.8 4.3 90 0.6 NE 9 9 5 5 1009.6 1009.6 0.0
24/05:00am 6.0 3.5 4.5 90 0.6 NE 7 9 4 5 1009.4 1009.4 0.0
24/04:30am 6.5 4.0 4.8 89 0.7 NE 7 9 4 5 1009.6 1009.6 0.0
24/04:00am 6.5 2.9 4.8 89 0.7 NE 13 13 7 7 1009.5 1009.5 0.0
24/03:30am 6.8 3.6 5.0 88 0.8 NE 11 13 6 7 1009.7 1009.7 0.0
24/03:00am 6.9 3.7 5.1 88 0.8 NE 11 13 6 7 1009.9 1009.9 0.0
24/02:30am 7.3 3.4 5.4 88 0.8 NE 15 17 8 9 1010.2 1010.2 0.0
24/02:00am 7.0 3.8 5.3 89 0.8 NNE 11 13 6 7 1010.5 1010.5 0.0
24/01:30am 7.0 4.6 5.2 88 0.8 NNE 7 9 4 5 1010.9 1010.9 0.0
24/01:00am 7.0 5.8 4.5 84 1.1 CALM 0 0 0 0 1011.0 1011.0 0.0
24/12:30am 8.6 5.5 5.5 81 1.4 NNE 11 13 6 7 1010.9 1010.9 0.0
24/12:00am 9.1 6.1 6.0 81 1.4 NNE 11 13 6 7 1011.0 1011.0 0.0
 
Date/Time
EST
Temp
°C
App
Temp
°C
Dew
Point
°C
Rel
Hum
%
Delta-T
°C
Wind Press
QNH
hPa
Press
MSL
hPa
Rain since
9am
mm
Dir  Spd
km/h
Gust
km/h
Spd
kts
Gust
kts
23/11:30pm 8.9 5.9 5.8 81 1.4 NNE 11 15 6 8 1011.2 1011.2 0.0
23/11:00pm 9.1 6.1 6.0 81 1.4 NNE 11 15 6 8 1011.2 1011.2 0.0
23/10:30pm 9.1 6.1 6.0 81 1.4 NNE 11 11 6 6 1011.4 1011.4 0.0
23/10:00pm 9.3 6.3 6.2 81 1.4 NNE 11 13 6 7 1011.7 1011.7 0.0
23/09:30pm 9.6 7.0 6.3 80 1.5 NNE 9 11 5 6 1011.7 1011.7 0.0
23/09:00pm 9.5 6.9 6.0 79 1.6 NNE 9 11 5 6 1011.5 1011.5 0.0
23/08:30pm 9.8 6.9 6.3 79 1.6 NNE 11 13 6 7 1011.7 1011.7 0.0
23/08:00pm 10.1 7.6 6.4 78 1.7 NNE 9 9 5 5 1011.7 1011.7 0.0
23/07:30pm 11.1 8.6 6.5 73 2.2 NNE 9 11 5 6 1011.5 1011.5 0.0
23/07:00pm 11.6 9.1 6.7 72 2.3 NNE 9 9 5 5 1011.5 1011.5 0.0
23/06:30pm 12.7 10.7 7.0 68 2.8 NNE 7 9 4 5 1011.5 1011.5 0.0
23/06:00pm 14.1 11.7 6.9 62 3.5 NNE 9 13 5 7 1011.5 1011.5 0.0
23/05:30pm 15.5 12.7 7.0 57 4.2 NNE 11 17 6 9 1011.3 1011.3 0.0
23/05:00pm 15.9 13.4 6.6 54 4.6 NNE 9 15 5 8 1011.4 1011.4 0.0
23/04:30pm 16.6 13.5 7.3 54 4.7 NE 13 17 7 9 1011.4 1011.4 0.0
23/04:00pm 16.8 14.2 6.3 50 5.2 N 9 13 5 7 1011.6 1011.6 0.0
23/03:30pm 17.1 14.1 6.0 48 5.4 N 11 19 6 10 1011.7 1011.7 0.0
23/03:00pm 17.0 14.2 5.0 45 5.7 NW 9 15 5 8 1012.2 1012.2 0.0
23/02:30pm 18.3 15.4 6.5 46 5.9 NNW 11 20 6 11 1012.5 1012.5 0.0
23/02:00pm 16.5 14.1 5.2 47 5.4 NW 7 13 4 7 1012.8 1012.8 0.0
23/01:30pm 16.5 13.5 5.8 49 5.2 NNE 11 19 6 10 1013.3 1013.3 0.0
23/01:00pm 17.0 14.7 5.9 48 5.4 NNW 7 11 4 6 1013.8 1013.8 0.0
23/12:30pm 16.0 14.1 7.7 58 4.2 NE 7 13 4 7 1014.2 1014.2 0.0
23/12:00pm 15.2 12.6 6.0 54 4.4 W 9 13 5 7 1014.9 1014.9 0.0
23/11:30am 14.8 12.6 6.1 56 4.2 NW 7 13 4 7 1015.3 1015.3 0.0
23/11:00am 13.8 11.7 5.7 58 3.8 SW 6 15 3 8 1015.8 1015.8 0.0
23/10:30am 13.6 11.3 5.7 59 3.7 SE 7 13 4 7 1016.5 1016.5 0.0
23/10:00am 12.9 10.8 6.0 63 3.3 SSE 6 9 3 5 1016.8 1016.8 0.0
23/09:30am 11.8 9.9 6.5 70 2.5 SE 6 11 3 6 1017.0 1017.0 0.0
23/09:00am 11.0 8.5 6.4 73 2.2 SE 9 11 5 6 1017.1 1017.2 0.0
23/08:30am 9.4 6.4 5.8 78 1.7 SE 11 15 6 8 1017.2 1017.3 0.0
23/08:00am 8.3 5.8 6.6 89 0.8 SSE 9 13 5 7 1017.2 1017.3 0.0
23/07:30am 6.1 3.9 5.2 94 0.4 S 6 9 3 5 1017.2 1017.3 0.0
23/07:00am 3.7 1.4 2.7 93 0.4 S 4 7 2 4 1016.9 1016.9 0.0
23/06:30am 2.6 0.1 1.6 93 0.4 S 4 6 2 3 1016.6 1016.6 0.0
23/06:00am 2.6 0.9 1.6 93 0.4 CALM 0 4 0 2 1016.5 1016.5 0.0
23/05:30am 2.5 0.3 1.3 92 0.5 S 2 6 1 3 1016.3 1016.3 0.0
23/05:00am 3.0 0.5 1.8 92 0.5 S 4 6 2 3 1016.0 1016.0 0.0
23/04:30am 3.2 1.5 2.0 92 0.5 CALM 0 0 0 0 1016.0 1016.0 0.0
23/04:00am 3.6 2.0 2.4 92 0.5 CALM 0 0 0 0 1016.1 1016.1 0.0
23/03:30am 4.2 1.4 3.0 92 0.5 S 7 9 4 5 1016.3 1016.3 0.0
23/03:00am 4.5 1.3 3.3 92 0.5 S 9 11 5 6 1016.5 1016.5 0.0
23/02:30am 4.8 2.1 3.5 91 0.5 S 7 11 4 6 1016.8 1016.8 0.0
23/02:00am 5.0 2.3 3.7 91 0.5 SSE 7 11 4 6 1017.1 1017.2 0.0
23/01:30am 5.4 2.7 3.9 90 0.6 S 7 11 4 6 1017.3 1017.4 0.0
23/01:00am 5.5 2.5 4.0 90 0.6 S 9 11 5 6 1017.6 1017.7 0.0
23/12:30am 5.8 2.8 4.3 90 0.6 S 9 11 5 6 1017.8 1017.9 0.0
23/12:00am 5.8 3.2 4.1 89 0.7 S 7 9 4 5 1017.9 1018.0 0.0
 
Date/Time
EST
Temp
°C
App
Temp
°C
Dew
Point
°C
Rel
Hum
%
Delta-T
°C
Wind Press
QNH
hPa
Press
MSL
hPa
Rain since
9am
mm
Dir  Spd
km/h
Gust
km/h
Spd
kts
Gust
kts
22/11:30pm 6.0 3.4 4.2 88 0.8 S 7 9 4 5 1017.9 1018.0 0.0
22/11:00pm 6.5 4.0 4.5 87 0.9 SSW 7 11 4 6 1018.2 1018.2 0.0
22/10:30pm 7.0 4.5 4.8 86 1.0 SSW 7 11 4 6 1018.2 1018.2 0.0

Other Formats:

Comma delimited format used in spreadsheet applications
http://www.bom.gov.au/fwo/IDV60801/IDV60801.94843.axf

JavaScript Object Notation format (JSON) in row-major order
http://www.bom.gov.au/fwo/IDV60801/IDV60801.94843.json